Time;durP1;ratioP1;P1;durP2;ratioP2;P2;SDS_P1;SDS_P2;PMS_P1;PMS_P2;Temp;Humidity;BMP_temperature;BMP_pressure;BME280_temperature;BME280_humidity;BME280_pressure;Samples;Min_cycle;Max_cycle;Signal;HPM_P1;HPM_P2
2021/08/26 00:07:50;;;;;;;3.92;2.47;;;13.90;99.90;;;;;;5005740;28;20034;-78
2021/08/26 00:10:17;;;;;;;5.63;2.42;;;13.90;99.90;;;;;;5014017;28;20033;-78
2021/08/26 00:12:43;;;;;;;3.78;2.50;;;13.90;99.90;;;;;;4996317;28;20508;-78
2021/08/26 00:15:09;;;;;;;5.38;2.63;;;13.90;99.90;;;;;;4995284;28;20049;-78
2021/08/26 00:17:35;;;;;;;7.32;2.97;;;13.90;99.90;;;;;;5006195;28;20033;-78
2021/08/26 00:20:02;;;;;;;6.13;3.25;;;13.90;99.90;;;;;;5009900;28;20070;-78
2021/08/26 00:22:28;;;;;;;9.07;3.22;;;13.90;99.90;;;;;;4979944;28;20096;-79
2021/08/26 00:24:54;;;;;;;4.38;2.97;;;13.90;99.90;;;;;;4987176;28;20468;-78
2021/08/26 00:27:23;;;;;;;5.57;2.58;;;13.90;99.90;;;;;;5013026;28;20041;-78
2021/08/26 00:29:49;;;;;;;5.28;3.42;;;13.90;99.90;;;;;;4994741;28;20037;-78
2021/08/26 00:32:15;;;;;;;3.83;2.60;;;13.90;99.90;;;;;;5006988;28;20026;-78
2021/08/26 00:34:41;;;;;;;4.35;2.88;;;13.90;99.90;;;;;;4994720;28;20316;-78
2021/08/26 00:37:06;;;;;;;6.07;3.13;;;13.90;99.90;;;;;;4975845;28;20397;-78
2021/08/26 00:39:32;;;;;;;4.57;2.60;;;13.90;99.90;;;;;;5006005;28;20535;-78
2021/08/26 00:41:57;;;;;;;6.13;3.08;;;13.90;99.90;;;;;;5005692;28;20041;-78
2021/08/26 00:44:23;;;;;;;4.35;2.75;;;13.80;99.90;;;;;;4994488;28;20029;-78
2021/08/26 00:46:49;;;;;;;5.97;2.70;;;13.90;99.90;;;;;;4989188;28;20030;-78
2021/08/26 00:49:17;;;;;;;4.80;2.65;;;13.90;99.90;;;;;;5005620;28;20026;-79
2021/08/26 00:51:46;;;;;;;4.05;2.50;;;13.90;99.90;;;;;;5011573;28;20088;-78
2021/08/26 00:54:12;;;;;;;4.63;2.90;;;13.90;99.90;;;;;;5005604;28;20041;-78
2021/08/26 00:56:37;;;;;;;7.70;3.00;;;13.90;99.90;;;;;;4989029;28;20038;-78
2021/08/26 00:59:06;;;;;;;3.58;2.33;;;13.90;99.90;;;;;;5005715;28;20487;-78
2021/08/26 01:02:06;;;;;;;4.18;2.40;;;13.90;99.90;;;;;;4990861;28;20037;-78
2021/08/26 01:04:42;;;;;;;4.25;2.47;;;13.90;99.90;;;;;;4954634;28;20530;-78
2021/08/26 01:07:25;;;;;;;5.40;2.60;;;13.90;99.90;;;;;;5012025;28;20038;-79
2021/08/26 01:09:58;;;;;;;3.00;2.17;;;13.90;99.90;;;;;;4977584;28;20038;-78
2021/08/26 01:12:25;;;;;;;5.63;2.85;;;13.90;99.90;;;;;;5008110;28;20084;-78
2021/08/26 01:14:51;;;;;;;5.32;2.58;;;13.90;99.90;;;;;;4992845;28;20049;-78
2021/08/26 01:17:28;;;;;;;4.28;2.17;;;13.90;99.90;;;;;;5009103;28;20037;-78
2021/08/26 01:20:00;;;;;;;5.90;2.70;;;13.90;99.90;;;;;;5016190;28;20026;-78
2021/08/26 01:22:28;;;;;;;3.97;2.47;;;13.90;99.90;;;;;;5000128;28;20028;-79
2021/08/26 01:25:07;;;;;;;3.40;2.20;;;13.90;99.90;;;;;;4996938;28;20026;-78
2021/08/26 01:27:39;;;;;;;3.28;2.28;;;13.90;99.90;;;;;;5015401;28;20408;-78
2021/08/26 01:30:06;;;;;;;3.58;2.20;;;13.90;99.90;;;;;;5014085;28;20064;-79
2021/08/26 01:32:33;;;;;;;4.70;2.15;;;13.80;99.90;;;;;;5016572;28;20032;-77
2021/08/26 01:34:58;;;;;;;5.82;3.00;;;13.80;99.90;;;;;;5019052;28;20030;-78
2021/08/26 01:37:25;;;;;;;4.15;2.50;;;13.80;99.90;;;;;;5010716;28;20113;-78
2021/08/26 01:39:52;;;;;;;7.57;2.75;;;13.80;99.90;;;;;;5017363;28;20087;-78
2021/08/26 01:42:22;;;;;;;5.55;2.50;;;13.70;99.90;;;;;;5001853;28;20029;-78
2021/08/26 01:44:48;;;;;;;4.03;2.70;;;13.70;99.90;;;;;;4999934;28;20034;-78
2021/08/26 01:47:17;;;;;;;5.25;2.83;;;13.70;99.90;;;;;;5017845;28;20507;-78
2021/08/26 01:49:52;;;;;;;4.13;2.33;;;13.70;99.90;;;;;;5012751;28;20033;-78
2021/08/26 01:52:23;;;;;;;4.85;2.50;;;13.70;99.90;;;;;;4983933;28;20042;-78
2021/08/26 01:55:01;;;;;;;4.43;2.47;;;13.70;99.90;;;;;;5011170;28;20117;-78
2021/08/26 01:57:32;;;;;;;5.00;2.83;;;13.70;99.90;;;;;;5008653;28;20041;-78
2021/08/26 02:00:05;;;;;;;4.20;2.85;;;13.70;99.90;;;;;;5018455;28;20523;-79
2021/08/26 02:02:31;;;;;;;3.35;2.30;;;13.70;99.90;;;;;;5000066;28;20026;-78
2021/08/26 02:04:57;;;;;;;4.85;2.40;;;13.70;99.90;;;;;;5013608;28;20031;-78
2021/08/26 02:07:22;;;;;;;6.82;2.70;;;13.70;99.90;;;;;;5021715;28;20025;-78
2021/08/26 02:09:48;;;;;;;4.82;2.65;;;13.70;99.90;;;;;;5014897;28;20057;-78
2021/08/26 02:12:14;;;;;;;4.72;2.85;;;13.70;99.90;;;;;;5018339;28;20037;-78
2021/08/26 02:14:39;;;;;;;3.75;2.38;;;13.70;99.90;;;;;;5019833;28;20535;-77
2021/08/26 02:17:05;;;;;;;6.57;2.63;;;13.60;99.90;;;;;;5014419;28;20034;-77
2021/08/26 02:19:31;;;;;;;4.75;2.63;;;13.60;99.90;;;;;;5015191;28;20033;-77
2021/08/26 02:21:57;;;;;;;6.40;2.83;;;13.50;99.90;;;;;;4995787;28;20493;-79
2021/08/26 02:24:22;;;;;;;5.13;2.83;;;13.50;99.90;;;;;;5001579;28;20032;-78
2021/08/26 02:26:48;;;;;;;3.97;2.63;;;13.50;99.90;;;;;;5016309;28;20036;-77
2021/08/26 02:29:14;;;;;;;5.60;2.83;;;13.50;99.90;;;;;;5015637;28;20042;-78
2021/08/26 02:31:39;;;;;;;3.67;2.83;;;13.50;99.90;;;;;;5017071;28;20030;-77
2021/08/26 02:34:05;;;;;;;5.35;2.88;;;13.50;99.90;;;;;;5014001;28;20507;-77
2021/08/26 02:36:31;;;;;;;6.32;2.92;;;13.50;99.90;;;;;;5009013;28;20493;-78
2021/08/26 02:38:56;;;;;;;5.95;2.70;;;13.50;99.90;;;;;;4991142;28;20037;-77
2021/08/26 02:41:22;;;;;;;3.92;2.50;;;13.50;99.90;;;;;;5004591;28;20065;-77
2021/08/26 02:43:48;;;;;;;3.60;2.67;;;13.40;99.90;;;;;;4985505;28;20033;-77
2021/08/26 02:46:14;;;;;;;4.32;3.05;;;13.40;99.90;;;;;;5006257;28;20093;-77
2021/08/26 02:48:39;;;;;;;4.95;3.22;;;13.40;99.90;;;;;;5001347;28;20494;-77
2021/08/26 02:51:05;;;;;;;4.68;2.78;;;13.30;99.90;;;;;;5009568;28;20109;-78
2021/08/26 02:53:31;;;;;;;6.97;3.30;;;13.40;99.90;;;;;;4998294;28;20436;-78
2021/08/26 02:55:59;;;;;;;6.35;3.30;;;13.30;99.90;;;;;;5014350;28;20033;-77
2021/08/26 02:58:25;;;;;;;5.20;3.00;;;13.30;99.90;;;;;;4994139;28;20033;-77
2021/08/26 03:00:51;;;;;;;6.13;3.15;;;13.30;99.90;;;;;;5009381;28;20104;-77
2021/08/26 03:03:17;;;;;;;7.45;3.35;;;13.30;99.90;;;;;;5016895;28;20068;-77
2021/08/26 03:05:42;;;;;;;6.00;3.28;;;13.30;99.90;;;;;;5010288;28;20507;-77
2021/08/26 03:08:08;;;;;;;4.85;3.00;;;13.30;99.90;;;;;;4995421;28;20416;-78
2021/08/26 03:10:34;;;;;;;3.55;2.85;;;13.20;99.90;;;;;;5011981;28;20022;-78
2021/08/26 03:13:00;;;;;;;7.13;3.63;;;13.20;99.90;;;;;;4995260;28;20037;-78
2021/08/26 03:15:26;;;;;;;6.97;4.45;;;13.20;99.90;;;;;;4997106;28;20046;-78
2021/08/26 03:17:52;;;;;;;5.38;3.00;;;13.20;99.90;;;;;;4992870;28;20054;-77
2021/08/26 03:20:20;;;;;;;7.40;3.80;;;13.20;99.90;;;;;;5012861;28;20107;-77
2021/08/26 03:22:47;;;;;;;5.55;3.72;;;13.10;99.90;;;;;;5012288;28;20022;-77
2021/08/26 03:25:13;;;;;;;7.07;3.90;;;13.20;99.90;;;;;;5007944;28;20502;-78
2021/08/26 03:27:38;;;;;;;7.40;4.40;;;13.20;99.90;;;;;;5011593;28;20042;-79
2021/08/26 03:30:06;;;;;;;6.72;3.30;;;13.20;99.90;;;;;;5011302;28;20369;-77
2021/08/26 03:32:33;;;;;;;5.57;3.33;;;13.10;99.90;;;;;;4995955;28;20476;-77
2021/08/26 03:34:59;;;;;;;7.50;3.95;;;13.20;99.90;;;;;;4995360;28;20373;-78
2021/08/26 03:37:25;;;;;;;6.03;3.47;;;13.10;99.90;;;;;;4987778;28;20038;-78
2021/08/26 03:39:50;;;;;;;7.05;3.53;;;13.10;99.90;;;;;;4992536;28;20034;-77
2021/08/26 03:42:16;;;;;;;8.15;3.75;;;13.10;99.90;;;;;;4996326;28;20173;-78
2021/08/26 03:44:42;;;;;;;5.75;3.53;;;13.10;99.90;;;;;;4995461;28;20037;-78
2021/08/26 03:47:09;;;;;;;6.47;3.83;;;13.10;99.90;;;;;;5011074;28;20039;-78
2021/08/26 03:49:35;;;;;;;5.60;3.35;;;13.10;99.90;;;;;;5012990;28;20034;-78
2021/08/26 03:52:02;;;;;;;5.80;3.80;;;13.10;99.90;;;;;;5016640;28;20116;-78
2021/08/26 03:54:28;;;;;;;6.40;3.70;;;13.10;99.90;;;;;;5012502;28;20056;-78
2021/08/26 03:56:54;;;;;;;6.80;3.97;;;13.10;99.90;;;;;;5004619;28;20034;-78
2021/08/26 03:59:19;;;;;;;6.28;3.88;;;13.10;99.90;;;;;;4995269;28;20515;-79
2021/08/26 04:01:45;;;;;;;6.10;3.80;;;13.10;99.90;;;;;;4994322;28;20161;-78
2021/08/26 04:04:11;;;;;;;5.82;3.45;;;13.10;99.90;;;;;;5011278;28;20041;-78
2021/08/26 04:06:36;;;;;;;5.20;3.60;;;13.10;99.90;;;;;;5007561;28;20017;-78
2021/08/26 04:09:02;;;;;;;7.30;4.57;;;13.10;99.90;;;;;;5006244;28;20424;-78
2021/08/26 04:11:28;;;;;;;7.35;3.97;;;13.10;99.90;;;;;;5018561;28;20022;-78
2021/08/26 04:13:53;;;;;;;7.78;4.30;;;13.10;99.90;;;;;;4985451;28;20395;-78
2021/08/26 04:16:20;;;;;;;6.60;4.28;;;13.10;99.90;;;;;;5005386;28;20038;-79
2021/08/26 04:18:45;;;;;;;8.85;4.35;;;13.10;99.90;;;;;;4989763;28;20543;-78
2021/08/26 04:21:12;;;;;;;7.07;4.20;;;13.10;99.90;;;;;;4995761;28;20026;-79
2021/08/26 04:23:37;;;;;;;5.85;3.95;;;13.10;99.90;;;;;;5008413;28;20045;-78
2021/08/26 04:26:03;;;;;;;6.82;4.68;;;13.10;99.90;;;;;;5012702;28;20026;-79
2021/08/26 04:28:29;;;;;;;7.07;4.20;;;13.10;99.90;;;;;;5012907;28;20025;-78
2021/08/26 04:30:54;;;;;;;5.03;3.80;;;13.10;99.90;;;;;;4994637;28;20022;-78
2021/08/26 04:33:20;;;;;;;6.53;4.15;;;13.10;99.90;;;;;;4993578;28;20030;-79
2021/08/26 04:35:46;;;;;;;8.50;4.72;;;13.10;99.90;;;;;;5012331;28;20391;-79
2021/08/26 04:38:11;;;;;;;6.10;3.70;;;13.10;99.90;;;;;;5008110;28;20046;-79
2021/08/26 04:40:37;;;;;;;7.75;4.72;;;13.10;99.90;;;;;;5012818;28;20026;-79
2021/08/26 04:43:03;;;;;;;6.30;4.68;;;13.10;99.90;;;;;;4998361;28;20396;-79
2021/08/26 04:45:29;;;;;;;8.75;4.38;;;13.00;99.90;;;;;;5005783;28;20038;-79
2021/08/26 04:47:55;;;;;;;5.85;3.97;;;13.00;99.90;;;;;;4993856;28;20018;-79
2021/08/26 04:50:21;;;;;;;7.93;4.57;;;13.00;99.90;;;;;;5010970;28;20109;-79
2021/08/26 04:52:46;;;;;;;11.35;4.03;;;13.00;99.90;;;;;;4993940;28;20026;-79
2021/08/26 04:55:12;;;;;;;4.35;3.60;;;13.00;99.90;;;;;;5008375;28;20026;-79
2021/08/26 04:57:38;;;;;;;4.55;3.35;;;13.00;99.90;;;;;;5003842;28;20022;-79
2021/08/26 05:00:05;;;;;;;5.28;3.63;;;13.00;99.90;;;;;;5014279;28;20540;-79
2021/08/26 05:02:30;;;;;;;6.20;3.97;;;13.00;99.90;;;;;;5011653;28;20172;-79
2021/08/26 05:04:56;;;;;;;5.03;3.45;;;12.90;99.90;;;;;;4991146;28;20109;-79
2021/08/26 05:07:22;;;;;;;5.18;3.72;;;13.00;99.90;;;;;;5013338;28;20041;-79
2021/08/26 05:09:48;;;;;;;5.32;3.90;;;13.00;99.90;;;;;;4974840;28;20037;-80
2021/08/26 05:12:14;;;;;;;4.13;3.38;;;13.00;99.90;;;;;;4995838;28;20033;-79
2021/08/26 05:14:40;;;;;;;4.32;3.00;;;13.00;99.90;;;;;;5012525;28;20044;-79
2021/08/26 05:17:06;;;;;;;3.28;2.80;;;13.00;99.90;;;;;;5009498;28;20030;-79
2021/08/26 05:19:32;;;;;;;3.55;2.78;;;13.00;99.90;;;;;;4995086;28;20033;-79
2021/08/26 05:21:58;;;;;;;3.60;3.10;;;13.10;99.90;;;;;;4991778;28;20053;-79
2021/08/26 05:24:24;;;;;;;3.67;2.72;;;13.10;99.90;;;;;;5011860;28;20022;-79
2021/08/26 05:26:50;;;;;;;3.25;2.28;;;13.20;99.90;;;;;;5011383;28;20026;-80
2021/08/26 05:29:15;;;;;;;3.30;2.50;;;13.20;99.90;;;;;;4992904;28;20030;-79
2021/08/26 05:31:41;;;;;;;2.40;2.08;;;13.30;99.90;;;;;;5010930;28;20058;-79
2021/08/26 05:34:07;;;;;;;4.07;2.00;;;13.30;99.90;;;;;;4996653;28;20455;-79
2021/08/26 05:36:32;;;;;;;2.35;2.10;;;13.30;99.90;;;;;;5012810;28;20034;-79
2021/08/26 05:38:58;;;;;;;2.25;1.90;;;13.30;99.90;;;;;;5011835;28;20061;-79
2021/08/26 05:41:24;;;;;;;2.17;1.98;;;13.30;99.90;;;;;;5000114;28;20054;-79
2021/08/26 05:43:49;;;;;;;3.22;1.98;;;13.40;99.90;;;;;;5017112;28;20088;-79
2021/08/26 05:46:15;;;;;;;2.28;1.92;;;13.50;99.90;;;;;;5000025;28;20092;-79
2021/08/26 05:48:41;;;;;;;1.88;1.75;;;13.60;99.90;;;;;;4964686;28;20045;-79
2021/08/26 05:51:06;;;;;;;1.92;1.70;;;13.70;99.90;;;;;;4998519;28;20029;-79
2021/08/26 05:53:32;;;;;;;1.77;1.67;;;13.80;99.90;;;;;;5012982;28;20034;-79
2021/08/26 05:55:58;;;;;;;1.60;1.50;;;13.90;99.90;;;;;;5012622;28;20026;-79
2021/08/26 05:58:23;;;;;;;1.35;1.25;;;13.90;99.90;;;;;;4993810;28;20033;-79
2021/08/26 06:00:49;;;;;;;2.28;1.33;;;13.90;99.90;;;;;;4980357;28;20058;-79
2021/08/26 06:03:15;;;;;;;1.90;1.70;;;13.90;99.90;;;;;;4999591;28;20030;-79
2021/08/26 06:05:44;;;;;;;2.17;1.55;;;13.90;99.90;;;;;;4994455;28;20411;-79
2021/08/26 06:08:10;;;;;;;1.75;1.38;;;13.90;99.90;;;;;;4993956;28;20113;-79
2021/08/26 06:10:38;;;;;;;1.98;1.73;;;13.90;99.90;;;;;;5011202;28;20434;-79
2021/08/26 06:13:04;;;;;;;2.28;2.03;;;13.80;99.90;;;;;;5019192;28;20116;-79
2021/08/26 06:15:30;;;;;;;3.40;1.75;;;13.80;99.90;;;;;;4998222;28;20482;-79
2021/08/26 06:17:56;;;;;;;2.40;1.92;;;13.80;99.90;;;;;;5003475;28;20034;-79
2021/08/26 06:20:22;;;;;;;2.13;1.77;;;13.80;99.90;;;;;;5015225;28;20087;-79
2021/08/26 06:22:47;;;;;;;5.60;2.28;;;13.70;99.90;;;;;;5028171;28;20117;-79
2021/08/26 06:25:14;;;;;;;2.85;1.70;;;13.70;99.90;;;;;;4983417;28;20512;-79
2021/08/26 06:27:41;;;;;;;3.00;2.22;;;13.70;99.90;;;;;;5027174;28;20025;-80
2021/08/26 06:30:09;;;;;;;5.15;2.28;;;13.80;99.90;;;;;;5002655;28;20035;-80
2021/08/26 06:32:35;;;;;;;2.88;2.38;;;13.80;99.90;;;;;;5018233;28;20041;-79
2021/08/26 06:35:03;;;;;;;2.47;1.90;;;13.80;99.90;;;;;;5007215;28;20026;-80
2021/08/26 06:37:29;;;;;;;4.50;2.67;;;13.80;99.90;;;;;;5001571;28;20057;-79
2021/08/26 06:39:57;;;;;;;5.03;2.25;;;13.70;99.90;;;;;;4999222;28;20021;-79
2021/08/26 06:42:23;;;;;;;2.65;2.40;;;13.70;99.90;;;;;;4995382;28;20033;-78
2021/08/26 06:44:49;;;;;;;2.97;2.40;;;13.60;99.90;;;;;;5001883;28;20160;-79
2021/08/26 06:47:16;;;;;;;3.17;2.35;;;13.50;99.90;;;;;;5004686;28;20049;-79
2021/08/26 06:49:42;;;;;;;3.13;1.77;;;13.40;99.90;;;;;;4999743;28;20037;-79
2021/08/26 06:52:08;;;;;;;2.33;2.03;;;13.40;99.90;;;;;;5020972;28;20034;-79
2021/08/26 06:54:34;;;;;;;2.60;1.67;;;13.30;99.90;;;;;;5021229;28;20511;-79
2021/08/26 06:56:59;;;;;;;3.00;1.55;;;13.30;99.90;;;;;;4991172;28;20120;-80
2021/08/26 06:59:25;;;;;;;2.35;1.40;;;13.50;99.90;;;;;;5012487;28;20022;-79
2021/08/26 07:01:51;;;;;;;3.15;1.73;;;13.70;99.90;;;;;;4979915;28;20034;-80
2021/08/26 07:04:16;;;;;;;1.92;1.30;;;14.00;99.90;;;;;;4981014;28;20037;-80
2021/08/26 07:06:42;;;;;;;1.30;1.20;;;14.30;99.90;;;;;;5006264;28;20396;-80
2021/08/26 07:09:08;;;;;;;3.05;1.40;;;14.90;99.90;;;;;;4994042;28;20377;-80
2021/08/26 07:11:33;;;;;;;2.67;1.25;;;15.40;99.90;;;;;;4959762;28;20034;-80
2021/08/26 07:13:59;;;;;;;1.25;1.10;;;16.00;99.90;;;;;;5010398;28;20030;-80
2021/08/26 07:16:25;;;;;;;1.25;1.15;;;16.50;99.90;;;;;;5052321;23;20104;-83
2021/08/26 07:18:50;;;;;;;3.00;1.17;;;17.00;99.90;;;;;;5022901;28;20478;-83
2021/08/26 07:21:16;;;;;;;2.58;1.00;;;17.40;99.90;;;;;;5036788;28;20028;-82
2021/08/26 07:23:42;;;;;;;2.75;0.95;;;17.70;99.90;;;;;;5007848;28;20065;-83
2021/08/26 07:26:07;;;;;;;1.63;1.10;;;18.00;99.90;;;;;;4975521;28;20040;-83
2021/08/26 07:28:33;;;;;;;1.58;1.08;;;18.20;99.90;;;;;;4992669;28;20030;-83
2021/08/26 07:30:59;;;;;;;1.67;1.17;;;18.40;99.90;;;;;;4994682;28;20038;-84
2021/08/26 07:33:24;;;;;;;1.65;1.27;;;18.50;99.90;;;;;;4986009;28;20120;-83
2021/08/26 07:35:50;;;;;;;2.80;0.77;;;18.60;99.90;;;;;;4998936;28;20129;-83
2021/08/26 07:38:16;;;;;;;3.03;1.25;;;18.70;99.90;;;;;;5017473;28;20048;-84
2021/08/26 07:40:42;;;;;;;3.33;1.23;;;18.70;99.90;;;;;;5011034;28;20112;-83
2021/08/26 07:43:07;;;;;;;1.73;1.10;;;18.60;99.90;;;;;;4982398;28;20030;-83
2021/08/26 07:45:33;;;;;;;3.25;1.00;;;18.60;99.90;;;;;;4998474;28;20030;-84
2021/08/26 07:47:59;;;;;;;1.60;1.13;;;18.50;99.90;;;;;;4981446;28;20093;-84
2021/08/26 07:50:24;;;;;;;4.57;1.50;;;18.40;99.90;;;;;;4984398;28;20030;-84
2021/08/26 07:52:50;;;;;;;1.48;1.10;;;18.30;99.90;;;;;;4997293;28;20040;-84
2021/08/26 07:55:16;;;;;;;2.35;1.27;;;18.20;99.90;;;;;;5005712;28;20665;-84
2021/08/26 07:57:41;;;;;;;1.50;1.40;;;18.10;99.90;;;;;;4998717;28;20030;-84
2021/08/26 08:00:08;;;;;;;3.80;2.17;;;18.10;99.90;;;;;;4999151;28;20030;-83
2021/08/26 08:02:33;;;;;;;1.35;1.20;;;18.10;99.90;;;;;;4999791;28;20093;-83
2021/08/26 08:04:59;;;;;;;3.08;1.35;;;18.20;99.90;;;;;;5002618;28;20036;-85
2021/08/26 08:07:25;;;;;;;1.75;1.25;;;18.30;99.90;;;;;;4995558;28;20026;-84
2021/08/26 08:09:52;;;;;;;1.80;1.23;;;18.20;99.90;;;;;;4984533;28;20030;-84
2021/08/26 08:12:18;;;;;;;1.20;1.00;;;18.10;99.90;;;;;;4999625;28;20534;-82
2021/08/26 08:14:44;;;;;;;3.80;1.60;;;17.80;99.90;;;;;;5005598;28;20048;-82
2021/08/26 08:17:10;;;;;;;1.55;0.82;;;17.60;99.90;;;;;;4998672;28;20041;-86
2021/08/26 08:19:37;;;;;;;2.70;1.17;;;17.30;99.90;;;;;;5009033;28;20024;-86
2021/08/26 08:22:03;;;;;;;1.55;1.30;;;17.00;99.90;;;;;;4996285;28;20571;-83
2021/08/26 08:24:29;;;;;;;2.00;1.23;;;16.80;99.90;;;;;;5001301;28;20063;-84
2021/08/26 08:26:56;;;;;;;1.42;1.00;;;16.70;99.90;;;;;;4981341;28;20075;-83
2021/08/26 08:29:21;;;;;;;1.42;1.20;;;16.80;99.90;;;;;;4998936;28;20038;-83
2021/08/26 08:31:47;;;;;;;2.53;1.10;;;16.80;99.90;;;;;;5029218;28;20120;-85
2021/08/26 08:34:13;;;;;;;1.40;1.05;;;16.90;99.90;;;;;;5034915;28;20056;-81
2021/08/26 08:36:39;;;;;;;2.97;1.08;;;16.90;99.90;;;;;;4995136;28;20060;-83
2021/08/26 08:39:06;;;;;;;2.45;1.17;;;16.80;99.90;;;;;;4993050;28;20128;-84
2021/08/26 08:41:32;;;;;;;2.03;1.10;;;16.70;99.90;;;;;;5001696;28;20057;-82
2021/08/26 08:44:01;;;;;;;2.13;1.23;;;16.60;99.90;;;;;;5027879;28;20056;-82
2021/08/26 08:46:27;;;;;;;1.98;1.27;;;16.50;99.90;;;;;;4991753;28;20117;-84
2021/08/26 08:48:56;;;;;;;2.15;1.08;;;16.50;99.90;;;;;;4988911;28;20034;-83
2021/08/26 08:51:23;;;;;;;1.90;1.20;;;16.60;99.90;;;;;;4992300;28;20133;-84
2021/08/26 08:53:50;;;;;;;2.00;1.13;;;16.60;99.90;;;;;;4990552;28;20061;-82
2021/08/26 08:56:17;;;;;;;4.60;1.90;;;16.60;99.90;;;;;;4995958;28;20048;-82
2021/08/26 08:58:43;;;;;;;2.53;1.00;;;16.60;99.90;;;;;;5002716;28;20022;-82
2021/08/26 09:01:13;;;;;;;1.73;1.23;;;16.60;99.90;;;;;;5005219;28;20044;-82
2021/08/26 09:03:39;;;;;;;2.03;1.20;;;16.60;99.90;;;;;;5001921;28;20034;-83
2021/08/26 09:06:08;;;;;;;6.10;0.98;;;16.50;99.90;;;;;;5010939;28;20045;-82
2021/08/26 09:08:34;;;;;;;2.15;0.93;;;16.50;99.90;;;;;;4996947;28;20076;-81
2021/08/26 09:11:09;;;;;;;1.25;1.10;;;16.60;99.90;;;;;;5000376;28;20468;-83
2021/08/26 09:13:35;;;;;;;2.90;1.25;;;16.70;99.90;;;;;;5027744;28;20064;-81
2021/08/26 09:16:01;;;;;;;1.50;1.30;;;16.80;99.90;;;;;;5008542;28;20065;-82
2021/08/26 09:18:27;;;;;;;2.97;0.82;;;16.90;99.90;;;;;;5023746;28;20018;-83
2021/08/26 09:21:05;;;;;;;2.15;1.10;;;16.90;99.90;;;;;;5013727;28;20064;-82
2021/08/26 09:23:32;;;;;;;3.08;1.52;;;17.00;99.90;;;;;;5025384;28;20026;-82
2021/08/26 09:26:25;;;;;;;1.60;0.98;;;17.00;99.90;;;;;;5007555;28;20045;-81
2021/08/26 09:28:53;;;;;;;2.13;1.10;;;17.10;99.90;;;;;;5011999;28;20042;-81
2021/08/26 09:31:23;;;;;;;2.38;1.00;;;17.10;99.90;;;;;;5011377;28;20045;-81
2021/08/26 09:33:57;;;;;;;2.08;1.00;;;17.20;99.90;;;;;;5011173;28;20127;-82
2021/08/26 09:36:35;;;;;;;1.20;1.05;;;17.10;99.90;;;;;;5011721;28;20034;-81
2021/08/26 09:39:08;;;;;;;2.35;1.20;;;17.10;99.90;;;;;;5026159;28;20029;-81
2021/08/26 09:41:35;;;;;;;3.08;1.20;;;17.00;99.90;;;;;;4998576;28;20233;-82
2021/08/26 09:44:07;;;;;;;4.20;1.25;;;17.00;99.90;;;;;;4997042;28;20032;-81
2021/08/26 09:46:33;;;;;;;1.48;1.23;;;16.90;99.90;;;;;;5012747;28;20026;-82
2021/08/26 09:49:13;;;;;;;2.35;1.25;;;17.00;99.90;;;;;;5027816;28;20026;-81
2021/08/26 09:51:40;;;;;;;1.60;1.33;;;17.00;99.90;;;;;;5001320;28;20045;-81
2021/08/26 09:54:28;;;;;;;3.30;1.52;;;17.00;99.90;;;;;;5006699;28;20088;-81
2021/08/26 09:56:54;;;;;;;1.98;1.75;;;17.10;99.90;;;;;;5026357;28;20045;-82
2021/08/26 09:59:20;;;;;;;2.88;1.20;;;17.10;99.90;;;;;;5033182;28;20033;-81
2021/08/26 10:01:46;;;;;;;2.53;1.02;;;17.10;99.90;;;;;;5016237;28;20052;-81
2021/08/26 10:04:28;;;;;;;2.13;1.17;;;17.20;99.90;;;;;;4999628;28;20029;-83
2021/08/26 10:06:54;;;;;;;1.92;1.10;;;17.30;99.90;;;;;;5025423;28;20038;-82
2021/08/26 10:09:21;;;;;;;3.67;1.50;;;17.30;99.90;;;;;;4998464;28;20053;-83
2021/08/26 10:11:47;;;;;;;2.22;1.30;;;17.20;99.90;;;;;;5002980;28;20072;-82
2021/08/26 10:14:13;;;;;;;3.17;1.80;;;17.20;99.90;;;;;;5000122;28;20033;-83
2021/08/26 10:16:40;;;;;;;4.10;1.60;;;17.20;99.90;;;;;;5000475;28;20446;-81
2021/08/26 10:19:07;;;;;;;1.65;1.30;;;17.10;99.90;;;;;;5019658;28;20120;-84
2021/08/26 10:21:33;;;;;;;4.63;1.90;;;17.10;99.90;;;;;;5023256;28;20025;-81
2021/08/26 10:23:59;;;;;;;3.28;1.58;;;17.10;99.90;;;;;;5012446;28;20056;-84
2021/08/26 10:26:28;;;;;;;2.13;1.63;;;17.20;99.90;;;;;;5015733;28;20030;-84
2021/08/26 10:28:55;;;;;;;3.50;1.63;;;17.30;99.90;;;;;;5012782;28;20104;-84
2021/08/26 10:31:28;;;;;;;1.85;1.50;;;17.40;99.90;;;;;;4995361;28;20033;-85
2021/08/26 10:34:14;;;;;;;4.00;1.60;;;17.40;99.90;;;;;;5022315;28;20112;-84
2021/08/26 10:36:45;;;;;;;2.65;1.27;;;17.40;99.90;;;;;;5020084;28;20092;-85
2021/08/26 10:39:34;;;;;;;3.25;1.92;;;17.30;99.90;;;;;;5000526;28;20040;-82
2021/08/26 10:42:32;;;;;;;2.92;1.52;;;17.30;99.90;;;;;;5004317;28;20044;-82
2021/08/26 10:45:06;;;;;;;1.55;1.05;;;17.20;99.90;;;;;;5016411;28;20034;-82
2021/08/26 10:47:47;;;;;;;2.30;1.48;;;17.10;99.90;;;;;;4997490;28;20037;-82
2021/08/26 10:50:18;;;;;;;5.28;1.55;;;17.00;99.90;;;;;;4996641;28;20064;-83
2021/08/26 10:52:59;;;;;;;3.53;1.40;;;16.90;99.90;;;;;;5015594;28;20423;-83
2021/08/26 10:55:42;;;;;;;2.25;1.15;;;16.80;99.90;;;;;;4996962;28;20034;-83
2021/08/26 10:58:24;;;;;;;3.50;1.45;;;16.90;99.90;;;;;;4997763;28;20150;-81
2021/08/26 11:00:50;;;;;;;4.18;1.48;;;17.10;99.90;;;;;;5010293;28;20026;-84
2021/08/26 11:03:35;;;;;;;3.53;1.48;;;17.30;99.90;;;;;;4997244;28;20042;-82
2021/08/26 11:06:01;;;;;;;2.55;1.35;;;17.60;99.90;;;;;;5024404;28;20034;-85
2021/08/26 11:08:31;;;;;;;5.18;1.10;;;17.90;99.90;;;;;;4991825;28;20033;-84
2021/08/26 11:11:18;;;;;;;2.55;1.10;;;18.20;99.90;;;;;;5012714;28;20040;-83
2021/08/26 11:13:44;;;;;;;3.28;0.95;;;18.30;99.90;;;;;;5017741;28;20060;-84
2021/08/26 11:16:25;;;;;;;1.02;0.90;;;18.40;99.90;;;;;;5012985;28;20037;-84
2021/08/26 11:18:56;;;;;;;1.83;1.15;;;18.60;99.90;;;;;;5039634;28;20029;-83
2021/08/26 11:21:40;;;;;;;1.10;1.00;;;18.70;99.90;;;;;;5003879;28;20113;-84
2021/08/26 11:24:07;;;;;;;3.28;0.80;;;18.80;99.90;;;;;;4997927;28;20080;-82
2021/08/26 11:27:06;;;;;;;1.75;1.25;;;18.90;99.90;;;;;;4994337;28;20037;-81
2021/08/26 11:29:32;;;;;;;2.00;1.10;;;18.80;99.90;;;;;;4991111;28;20052;-83
2021/08/26 11:32:00;;;;;;;1.98;1.10;;;18.80;99.90;;;;;;5030127;28;20455;-81
2021/08/26 11:34:35;;;;;;;1.50;1.15;;;18.70;99.90;;;;;;4992613;28;20502;-85
2021/08/26 11:37:08;;;;;;;1.83;1.25;;;18.50;99.90;;;;;;5024717;28;20043;-83
2021/08/26 11:39:44;;;;;;;3.33;0.98;;;18.40;99.90;;;;;;5004884;28;20381;-83
2021/08/26 11:42:31;;;;;;;1.38;1.00;;;18.30;99.90;;;;;;5008805;28;20130;-82
2021/08/26 11:45:22;;;;;;;2.08;1.13;;;18.10;99.90;;;;;;4999466;28;20021;-84
2021/08/26 11:47:56;;;;;;;1.92;1.30;;;18.00;99.90;;;;;;4994660;28;20384;-84
2021/08/26 11:50:28;;;;;;;3.35;1.13;;;18.10;99.90;;;;;;4989098;28;20050;-81
2021/08/26 11:53:00;;;;;;;1.67;0.93;;;18.20;99.90;;;;;;4998728;28;20033;-82
2021/08/26 11:55:28;;;;;;;1.25;1.00;;;18.40;99.90;;;;;;5004790;28;20388;-82
2021/08/26 11:57:59;;;;;;;1.55;1.02;;;18.60;99.90;;;;;;4972504;28;20029;-82
2021/08/26 12:00:26;;;;;;;3.58;0.95;;;18.60;99.90;;;;;;4989984;28;20044;-82
2021/08/26 12:02:54;;;;;;;4.03;1.13;;;18.90;99.90;;;;;;5013209;28;20112;-84
2021/08/26 12:05:20;;;;;;;1.65;1.10;;;19.10;99.90;;;;;;4985547;28;20040;-81
2021/08/26 12:07:48;;;;;;;2.13;1.00;;;19.10;99.90;;;;;;5006429;28;20030;-81
2021/08/26 12:10:25;;;;;;;1.48;1.10;;;19.00;99.90;;;;;;4967411;28;20052;-81
2021/08/26 12:12:59;;;;;;;1.77;1.05;;;18.90;99.90;;;;;;4986524;28;20512;-83
2021/08/26 12:15:33;;;;;;;1.77;1.30;;;18.80;99.90;;;;;;5021734;28;20100;-80
2021/08/26 12:18:04;;;;;;;1.20;1.10;;;18.60;99.90;;;;;;5022180;28;20029;-81
2021/08/26 12:20:33;;;;;;;2.08;1.20;;;18.50;99.90;;;;;;5001541;28;20032;-80
2021/08/26 12:22:59;;;;;;;2.40;1.40;;;18.30;99.90;;;;;;5004788;28;20061;-80
2021/08/26 12:26:03;;;;;;;1.48;1.05;;;18.10;99.90;;;;;;5019560;28;20088;-80
2021/08/26 12:28:47;;;;;;;1.65;0.90;;;17.90;99.90;;;;;;4979799;28;20085;-79
2021/08/26 12:31:18;;;;;;;1.50;1.20;;;17.60;99.90;;;;;;5015461;28;20034;-81
2021/08/26 12:33:57;;;;;;;1.63;1.17;;;17.50;99.90;;;;;;5025742;28;20033;-81
2021/08/26 12:36:22;;;;;;;1.70;1.30;;;17.50;99.90;;;;;;5000970;28;20029;-81
2021/08/26 12:38:48;;;;;;;2.60;1.33;;;17.50;99.90;;;;;;5018577;28;20522;-82
2021/08/26 12:41:17;;;;;;;2.28;1.15;;;17.70;99.90;;;;;;4995833;28;20058;-81
2021/08/26 12:43:49;;;;;;;1.77;1.30;;;17.90;99.90;;;;;;4974031;28;20081;-80
2021/08/26 12:46:20;;;;;;;2.42;1.10;;;18.00;99.90;;;;;;5003287;28;20132;-81
2021/08/26 12:48:48;;;;;;;3.17;1.02;;;18.10;99.90;;;;;;5001423;28;20040;-81
2021/08/26 12:51:15;;;;;;;1.48;1.00;;;18.40;99.90;;;;;;4987650;28;20034;-82
2021/08/26 12:54:03;;;;;;;5.60;1.40;;;18.70;99.90;;;;;;4986888;28;20098;-81
2021/08/26 12:56:43;;;;;;;1.63;1.00;;;18.90;99.90;;;;;;4972059;28;20050;-81
2021/08/26 12:59:11;;;;;;;2.92;1.30;;;19.20;99.90;;;;;;5014524;28;20070;-82
2021/08/26 13:01:41;;;;;;;3.80;1.40;;;19.60;99.90;;;;;;5019517;28;20156;-81